Time;durP1;ratioP1;P1;durP2;ratioP2;P2;SDS_P1;SDS_P2;PMS_P1;PMS_P2;Temp;Humidity;BMP_temperature;BMP_pressure;BME280_temperature;BME280_humidity;BME280_pressure;Samples;Min_cycle;Max_cycle;Signal;HPM_P1;HPM_P2
2022/09/04 00:00:25;;;;;;;4.60;1.52;;;19.60;90.90;;;;;;4978648;28;20046;-69
2022/09/04 00:02:51;;;;;;;6.03;3.20;;;19.60;90.90;;;;;;4978614;28;20101;-69
2022/09/04 00:05:52;;;;;;;4.18;1.85;;;19.60;90.90;;;;;;4978275;28;20054;-69
2022/09/04 00:08:46;;;;;;;5.70;1.60;;;19.60;91.00;;;;;;4978312;28;20046;-69
2022/09/04 00:11:37;;;;;;;7.13;1.73;;;19.60;90.80;;;;;;4978174;28;20370;-69
2022/09/04 00:14:32;;;;;;;4.55;1.60;;;19.50;90.90;;;;;;4977886;28;20134;-69
2022/09/04 00:17:08;;;;;;;4.95;1.35;;;19.40;91.00;;;;;;4978310;28;20042;-69
2022/09/04 00:19:38;;;;;;;;;;;19.40;91.10;;;;;;4978279;28;20042;-69
2022/09/04 00:22:19;;;;;;;4.28;1.60;;;19.30;91.10;;;;;;4978174;28;19918;-69
2022/09/04 00:24:54;;;;;;;5.60;1.23;;;19.30;91.00;;;;;;4978147;28;20058;-69
2022/09/04 00:27:27;;;;;;;2.35;1.45;;;19.30;91.20;;;;;;4977379;28;20109;-69
2022/09/04 00:30:07;;;;;;;3.70;1.50;;;19.30;91.00;;;;;;4978160;28;20034;-69
2022/09/04 00:32:38;;;;;;;4.93;1.55;;;19.30;91.10;;;;;;4978021;28;20050;-69
2022/09/04 00:35:15;;;;;;;3.55;1.45;;;19.20;91.20;;;;;;4977788;28;20047;-69
2022/09/04 00:38:07;;;;;;;4.90;1.25;;;19.10;91.10;;;;;;4976778;28;20062;-69
2022/09/04 00:40:36;;;;;;;4.38;1.42;;;19.10;91.40;;;;;;4977777;28;20098;-69
2022/09/04 00:43:28;;;;;;;2.25;1.17;;;19.00;91.40;;;;;;4978112;28;20047;-69
2022/09/04 00:46:23;;;;;;;4.15;1.60;;;18.90;91.40;;;;;;4976953;28;20318;-69
2022/09/04 00:49:11;;;;;;;5.47;1.65;;;18.80;91.50;;;;;;4977483;28;20185;-69
2022/09/04 00:51:53;;;;;;;5.20;1.55;;;18.80;91.60;;;;;;4977943;28;20038;-69
2022/09/04 00:54:34;;;;;;;4.28;1.40;;;18.80;91.50;;;;;;4977594;28;20039;-69
2022/09/04 00:57:24;;;;;;;4.63;1.58;;;18.80;91.50;;;;;;4977639;28;20392;-69
2022/09/04 01:00:18;;;;;;;3.90;1.42;;;18.70;91.40;;;;;;4977697;28;20081;-69
2022/09/04 01:03:04;;;;;;;2.53;1.40;;;18.70;91.60;;;;;;4977687;28;20074;-69
2022/09/04 01:06:02;;;;;;;3.17;1.33;;;18.80;91.60;;;;;;4977631;28;20126;-69
2022/09/04 01:08:46;;;;;;;3.63;1.20;;;18.80;91.60;;;;;;4977316;28;20050;-69
2022/09/04 01:11:50;;;;;;;2.95;1.58;;;18.80;91.50;;;;;;4977369;28;20122;-69
2022/09/04 01:14:39;;;;;;;3.67;1.40;;;18.70;91.40;;;;;;4992983;28;20047;-69
2022/09/04 01:17:28;;;;;;;2.95;1.30;;;18.60;91.60;;;;;;4977489;28;20426;-69
2022/09/04 01:20:25;;;;;;;2.50;1.42;;;18.70;91.60;;;;;;4977100;28;20039;-69
2022/09/04 01:22:59;;;;;;;3.35;1.42;;;18.60;91.60;;;;;;4977698;28;20042;-69
2022/09/04 01:25:57;;;;;;;2.97;1.25;;;18.50;91.70;;;;;;4977304;28;20150;-69
2022/09/04 01:29:02;;;;;;;3.60;1.65;;;18.50;91.80;;;;;;4992587;28;20042;-69
2022/09/04 01:32:05;;;;;;;6.25;1.92;;;18.50;91.90;;;;;;4979846;28;20058;-69
2022/09/04 01:34:58;;;;;;;3.47;1.90;;;18.40;91.90;;;;;;4981317;28;20054;-69
2022/09/04 01:38:01;;;;;;;3.10;1.33;;;18.30;91.80;;;;;;4980996;28;20066;-69
2022/09/04 01:40:38;;;;;;;2.85;1.50;;;18.30;91.90;;;;;;4981298;28;20037;-69
2022/09/04 01:43:17;;;;;;;4.88;1.60;;;18.30;91.90;;;;;;4980892;28;20042;-69
2022/09/04 01:45:55;;;;;;;3.17;1.70;;;18.30;91.90;;;;;;4981043;28;20429;-69
2022/09/04 01:49:05;;;;;;;6.25;2.30;;;18.20;92.00;;;;;;4980901;28;20097;-69
2022/09/04 01:51:43;;;;;;;3.45;1.75;;;18.20;91.80;;;;;;4980668;28;20038;-69
2022/09/04 01:54:40;;;;;;;5.45;1.95;;;18.10;91.80;;;;;;4979760;28;20074;-69
2022/09/04 01:57:41;;;;;;;8.73;1.92;;;18.10;91.90;;;;;;4980813;28;20047;-68
2022/09/04 02:00:10;;;;;;;5.72;2.17;;;18.10;91.80;;;;;;4996034;28;20053;-69
2022/09/04 02:03:01;;;;;;;7.60;3.20;;;18.10;91.60;;;;;;4981042;28;20315;-69
2022/09/04 02:05:47;;;;;;;6.00;2.65;;;18.10;91.90;;;;;;4980696;28;20043;-69
2022/09/04 02:08:34;;;;;;;4.63;2.08;;;18.10;91.90;;;;;;4980410;28;20104;-69
2022/09/04 02:11:13;;;;;;;11.55;3.97;;;18.20;91.80;;;;;;4980550;28;20448;-69
2022/09/04 02:14:03;;;;;;;6.60;2.88;;;18.30;91.90;;;;;;4979693;28;20310;-69
2022/09/04 02:16:58;;;;;;;5.68;3.05;;;18.30;91.70;;;;;;4995448;28;20089;-69
2022/09/04 02:19:32;;;;;;;7.90;2.47;;;18.20;91.60;;;;;;4980060;28;20043;-69
2022/09/04 02:22:15;;;;;;;4.57;2.50;;;18.10;91.60;;;;;;4980310;28;20035;-69
2022/09/04 02:24:55;;;;;;;3.50;2.30;;;18.10;91.70;;;;;;4980218;28;20122;-70
2022/09/04 02:27:23;;;;;;;4.30;1.90;;;18.00;91.70;;;;;;4980303;28;20101;-69
2022/09/04 02:30:07;;;;;;;3.45;2.17;;;18.10;91.60;;;;;;4980204;28;20072;-69
2022/09/04 02:32:47;;;;;;;10.20;1.75;;;18.00;91.80;;;;;;4979067;28;20054;-69
2022/09/04 02:35:50;;;;;;;4.75;2.05;;;17.90;91.70;;;;;;4978979;28;20126;-69
2022/09/04 02:38:34;;;;;;;6.05;2.10;;;18.00;91.60;;;;;;4980091;28;20345;-69
2022/09/04 02:41:19;;;;;;;5.60;2.10;;;18.00;91.60;;;;;;4979880;28;20094;-69
2022/09/04 02:43:48;;;;;;;4.88;1.73;;;17.80;91.60;;;;;;4979067;28;20061;-69
2022/09/04 02:46:44;;;;;;;4.45;2.00;;;17.80;91.80;;;;;;4979865;28;20046;-69
2022/09/04 02:50:00;;;;;;;5.15;1.80;;;17.90;91.70;;;;;;4979684;28;20043;-69
2022/09/04 02:52:47;;;;;;;6.18;2.70;;;17.80;91.80;;;;;;4978873;28;20051;-68
2022/09/04 02:55:43;;;;;;;5.57;2.95;;;17.80;91.70;;;;;;4979717;28;20040;-69
2022/09/04 02:58:33;;;;;;;7.35;2.28;;;17.90;91.90;;;;;;4979459;28;20438;-69
2022/09/04 03:01:21;;;;;;;4.38;2.08;;;17.90;91.70;;;;;;4994741;28;20039;-69
2022/09/04 03:04:07;;;;;;;4.10;2.33;;;17.90;91.80;;;;;;4979871;28;20047;-69
2022/09/04 03:06:43;;;;;;;;;;;17.80;91.90;;;;;;4979964;28;20043;-69
2022/09/04 03:09:33;;;;;;;5.00;2.50;;;17.80;91.90;;;;;;4994446;28;19918;-69
2022/09/04 03:12:25;;;;;;;7.03;1.92;;;17.70;91.90;;;;;;4979368;28;20521;-69
2022/09/04 03:15:12;;;;;;;6.68;2.63;;;17.60;91.90;;;;;;4994620;28;20042;-69
2022/09/04 03:17:40;;;;;;;;;;;17.60;92.00;;;;;;4979948;28;20043;-69
2022/09/04 03:20:12;;;;;;;6.10;1.75;;;17.60;91.90;;;;;;4978937;28;19925;-69
2022/09/04 03:23:22;;;;;;;4.72;1.60;;;17.70;91.90;;;;;;4979298;28;20047;-69
2022/09/04 03:26:28;;;;;;;4.35;1.70;;;17.60;92.00;;;;;;4977108;28;20042;-69
2022/09/04 03:29:04;;;;;;;9.07;2.03;;;17.50;92.00;;;;;;4979255;28;20358;-69
2022/09/04 03:31:45;;;;;;;7.03;2.20;;;17.40;92.00;;;;;;4978919;28;20042;-69
2022/09/04 03:34:29;;;;;;;4.53;1.83;;;17.40;92.20;;;;;;4979056;28;20433;-69
2022/09/04 03:37:26;;;;;;;5.57;2.47;;;17.40;92.20;;;;;;4978914;28;20125;-69
2022/09/04 03:40:03;;;;;;;7.00;3.17;;;17.40;92.30;;;;;;4978826;28;20109;-68
2022/09/04 03:43:01;;;;;;;4.47;1.90;;;17.30;92.20;;;;;;4979047;28;20434;-69
2022/09/04 03:46:03;;;;;;;4.90;1.85;;;17.30;92.20;;;;;;4978876;28;20070;-69
2022/09/04 03:48:40;;;;;;;5.30;1.92;;;17.10;92.40;;;;;;4978333;28;20039;-69
2022/09/04 03:51:31;;;;;;;9.18;2.35;;;17.20;92.40;;;;;;4994174;28;20046;-68
2022/09/04 03:54:23;;;;;;;3.58;2.22;;;17.30;92.20;;;;;;4977987;28;20050;-68
2022/09/04 03:57:13;;;;;;;3.60;1.92;;;17.40;92.40;;;;;;4978685;28;20050;-68
2022/09/04 04:00:10;;;;;;;6.05;2.13;;;17.30;92.40;;;;;;4993812;28;20054;-69
2022/09/04 04:02:54;;;;;;;;;;;17.30;92.40;;;;;;4979069;28;20049;-69
2022/09/04 04:05:23;;;;;;;5.72;2.40;;;17.30;92.80;;;;;;4993488;28;20312;-69
2022/09/04 04:08:26;;;;;;;15.18;6.63;;;17.20;92.40;;;;;;4978689;28;20373;-69
2022/09/04 04:11:02;;;;;;;41.10;22.08;;;17.20;92.50;;;;;;4977578;28;20058;-69
2022/09/04 04:13:46;;;;;;;31.48;16.60;;;17.10;92.60;;;;;;4978165;28;20074;-69
2022/09/04 04:16:43;;;;;;;18.05;10.10;;;17.20;92.70;;;;;;4977342;28;20058;-69
2022/09/04 04:19:19;;;;;;;;;;;17.10;92.70;;;;;;4986208;28;20046;-68
2022/09/04 04:21:57;;;;;;;9.55;3.33;;;17.00;92.60;;;;;;4978273;28;19926;-69
2022/09/04 04:24:56;;;;;;;17.73;6.85;;;16.90;92.70;;;;;;4978303;28;20035;-69
2022/09/04 04:27:43;;;;;;;23.80;10.40;;;17.00;92.60;;;;;;4978053;28;20039;-69
2022/09/04 04:30:17;;;;;;;;;;;17.00;92.80;;;;;;4978732;28;20070;-69
2022/09/04 04:32:55;;;;;;;6.28;3.20;;;17.10;92.70;;;;;;4978055;28;19925;-69
2022/09/04 04:35:39;;;;;;;8.57;3.50;;;17.10;92.90;;;;;;4977984;28;20042;-69
2022/09/04 04:38:19;;;;;;;5.97;2.50;;;17.10;92.80;;;;;;4977130;28;20059;-69
2022/09/04 04:41:01;;;;;;;8.05;3.88;;;17.10;92.60;;;;;;4977151;28;20133;-69
2022/09/04 04:43:48;;;;;;;5.45;2.17;;;17.10;92.60;;;;;;4977027;28;20043;-68
2022/09/04 04:46:33;;;;;;;;;;;17.20;92.70;;;;;;4977570;28;20100;-68
2022/09/04 04:49:14;;;;;;;4.88;1.92;;;17.10;92.70;;;;;;4975451;28;20348;-69
2022/09/04 04:52:23;;;;;;;6.38;2.30;;;17.00;92.70;;;;;;4976104;28;20109;-69
2022/09/04 04:55:16;;;;;;;7.85;2.35;;;16.90;92.80;;;;;;4976800;28;20400;-69
2022/09/04 04:58:06;;;;;;;6.28;2.70;;;16.90;93.00;;;;;;4977116;28;20185;-69
2022/09/04 05:00:39;;;;;;;6.38;2.42;;;16.90;93.00;;;;;;4976885;28;20447;-68
2022/09/04 05:03:15;;;;;;;7.22;2.58;;;16.90;92.90;;;;;;4976927;28;20039;-68
2022/09/04 05:05:42;;;;;;;;;;;17.00;93.00;;;;;;4976280;28;20054;-68
2022/09/04 05:08:14;;;;;;;6.40;2.47;;;17.00;93.00;;;;;;4976849;28;19925;-68
2022/09/04 05:10:49;;;;;;;7.78;2.40;;;16.90;93.10;;;;;;4992000;28;20050;-69
2022/09/04 05:13:25;;;;;;;7.72;2.20;;;16.90;93.10;;;;;;4976916;28;20505;-69
2022/09/04 05:16:18;;;;;;;6.82;2.30;;;16.90;93.10;;;;;;4976580;28;20035;-69
2022/09/04 05:18:56;;;;;;;6.68;2.38;;;16.90;93.00;;;;;;4976405;28;20051;-69
2022/09/04 05:21:33;;;;;;;6.80;2.47;;;16.80;93.00;;;;;;4975687;28;20086;-69
2022/09/04 05:24:15;;;;;;;4.70;2.05;;;16.70;92.90;;;;;;4976459;28;20073;-69
2022/09/04 05:27:29;;;;;;;4.32;2.17;;;16.70;93.00;;;;;;4976873;28;20390;-69
2022/09/04 05:29:58;;;;;;;5.07;2.30;;;16.70;93.00;;;;;;4976667;28;20109;-68
2022/09/04 05:32:59;;;;;;;5.05;2.35;;;16.90;93.20;;;;;;4976684;28;20337;-69
2022/09/04 05:38:24;;;;;;;10.50;2.80;;;16.90;92.90;;;;;;5134954;27;20506;-68
2022/09/04 05:41:06;;;;;;;7.15;2.28;;;17.00;93.10;;;;;;5135131;27;20063;-67
2022/09/04 05:44:10;;;;;;;6.85;2.47;;;17.00;93.10;;;;;;5134783;27;20328;-67
2022/09/04 05:46:51;;;;;;;5.65;2.67;;;17.00;92.90;;;;;;5134743;28;20043;-68
2022/09/04 05:49:31;;;;;;;6.50;2.28;;;17.00;92.90;;;;;;5134434;27;20050;-68
2022/09/04 05:52:21;;;;;;;6.50;2.42;;;17.00;92.90;;;;;;5134890;28;20039;-67
2022/09/04 05:54:47;;;;;;;4.75;2.17;;;17.00;93.10;;;;;;5133774;27;20051;-68
2022/09/04 05:57:18;;;;;;;7.32;2.75;;;17.10;93.00;;;;;;5134733;28;20039;-68
2022/09/04 06:00:00;;;;;;;5.15;2.45;;;17.20;93.10;;;;;;5134495;27;20039;-68
2022/09/04 06:02:46;;;;;;;5.10;2.67;;;17.10;93.00;;;;;;5134803;27;20040;-68
2022/09/04 06:05:36;;;;;;;5.60;2.22;;;17.20;93.10;;;;;;5134430;28;20035;-68
2022/09/04 06:08:16;;;;;;;12.38;5.10;;;17.20;93.10;;;;;;5134435;28;20047;-68
2022/09/04 06:10:57;;;;;;;6.90;2.75;;;17.20;93.30;;;;;;5134652;28;20131;-67
2022/09/04 06:13:46;;;;;;;5.47;2.88;;;17.20;93.30;;;;;;5167838;27;20092;-68
2022/09/04 06:16:17;;;;;;;5.38;2.80;;;17.30;93.30;;;;;;5134234;27;20051;-68
2022/09/04 06:19:13;;;;;;;6.70;2.90;;;17.40;93.20;;;;;;5133984;27;20039;-68
2022/09/04 06:21:58;;;;;;;9.05;4.15;;;17.30;93.10;;;;;;5134049;28;20046;-67
2022/09/04 06:24:55;;;;;;;10.68;4.20;;;17.30;93.10;;;;;;5134226;28;20038;-68
2022/09/04 06:27:51;;;;;;;5.65;2.50;;;17.20;93.30;;;;;;5133940;28;20040;-68
2022/09/04 06:30:17;;;;;;;4.75;2.70;;;17.30;93.00;;;;;;5133911;27;20039;-67
2022/09/04 06:33:01;;;;;;;5.63;2.33;;;17.40;93.10;;;;;;5134022;27;20035;-67
2022/09/04 06:35:49;;;;;;;10.68;5.22;;;17.30;93.30;;;;;;5133975;28;20071;-68
2022/09/04 06:38:43;;;;;;;6.65;2.90;;;17.30;93.40;;;;;;5133894;27;20039;-67
2022/09/04 06:41:36;;;;;;;7.25;2.67;;;17.40;93.20;;;;;;5133751;27;20035;-68
2022/09/04 06:44:29;;;;;;;5.22;2.80;;;17.40;93.10;;;;;;5133677;27;20107;-67
2022/09/04 06:47:13;;;;;;;6.50;3.17;;;17.40;93.20;;;;;;5133750;27;20058;-67
2022/09/04 06:49:45;;;;;;;5.80;2.63;;;17.50;93.30;;;;;;5119004;27;20055;-68
2022/09/04 06:52:21;;;;;;;6.40;2.80;;;17.50;93.30;;;;;;5118819;28;20035;-68
2022/09/04 06:55:18;;;;;;;7.35;3.08;;;17.60;93.30;;;;;;5119939;28;20078;-67
2022/09/04 06:57:50;;;;;;;7.30;2.78;;;17.50;93.40;;;;;;5108490;28;20044;-67
2022/09/04 07:00:19;;;;;;;5.22;2.75;;;17.50;93.30;;;;;;5119969;28;20044;-68
2022/09/04 07:03:18;;;;;;;3.83;2.55;;;17.60;93.50;;;;;;5119556;28;20070;-68
2022/09/04 07:05:57;;;;;;;4.72;2.97;;;17.80;93.50;;;;;;5119733;28;20119;-68
2022/09/04 07:08:43;;;;;;;4.78;3.20;;;18.00;93.40;;;;;;5119775;28;20042;-67
2022/09/04 07:11:22;;;;;;;6.57;3.40;;;18.10;93.30;;;;;;5108276;28;20051;-68
2022/09/04 07:14:18;;;;;;;5.18;2.67;;;18.00;93.40;;;;;;5119363;28;20039;-68
2022/09/04 07:16:53;;;;;;;6.53;3.10;;;18.20;93.60;;;;;;5118450;28;20074;-68
2022/09/04 07:19:39;;;;;;;4.75;2.70;;;18.40;93.60;;;;;;5118976;28;20044;-67
2022/09/04 07:22:43;;;;;;;5.95;3.17;;;18.40;93.40;;;;;;5152950;27;20341;-68
2022/09/04 07:25:16;;;;;;;11.25;3.88;;;18.50;93.40;;;;;;5119046;28;20066;-68
2022/09/04 07:28:15;;;;;;;4.90;2.53;;;18.60;93.60;;;;;;5118303;28;20055;-68
2022/09/04 07:31:04;;;;;;;8.05;3.05;;;18.70;93.60;;;;;;5119413;28;20088;-68
2022/09/04 07:33:54;;;;;;;7.15;2.78;;;18.90;93.40;;;;;;5088821;28;20421;-68
2022/09/04 07:36:47;;;;;;;12.85;3.30;;;18.80;93.30;;;;;;5117730;28;20056;-68
2022/09/04 07:39:46;;;;;;;8.23;3.30;;;18.90;93.30;;;;;;5119119;28;20043;-68
2022/09/04 07:42:22;;;;;;;5.15;2.78;;;19.00;93.40;;;;;;5118897;28;20417;-68
2022/09/04 07:45:01;;;;;;;12.18;4.47;;;19.20;93.50;;;;;;5118985;28;20044;-68
2022/09/04 07:47:30;;;;;;;4.50;2.30;;;19.20;93.40;;;;;;5117835;28;20043;-68
2022/09/04 07:50:17;;;;;;;14.88;6.45;;;19.20;93.20;;;;;;5118312;28;20036;-68
2022/09/04 07:52:51;;;;;;;12.40;5.53;;;19.40;93.30;;;;;;5117738;28;20122;-68
2022/09/04 07:55:33;;;;;;;6.75;3.08;;;19.70;93.30;;;;;;5118656;28;20428;-68
2022/09/04 07:58:32;;;;;;;4.32;2.28;;;19.80;93.40;;;;;;5118488;28;20062;-68
2022/09/04 08:01:29;;;;;;;6.50;2.60;;;19.90;93.30;;;;;;5116499;28;20044;-68
2022/09/04 08:04:16;;;;;;;4.45;2.40;;;20.00;93.20;;;;;;5118483;28;20463;-68
2022/09/04 08:07:00;;;;;;;5.78;2.33;;;20.10;93.20;;;;;;5118292;28;20345;-68
2022/09/04 08:09:57;;;;;;;5.55;2.15;;;20.10;93.00;;;;;;5118581;28;20100;-68
2022/09/04 08:12:28;;;;;;;4.50;2.42;;;20.20;93.10;;;;;;5151695;27;20049;-68
2022/09/04 08:15:01;;;;;;;4.90;2.33;;;20.20;93.00;;;;;;5117237;28;20100;-68
2022/09/04 08:17:53;;;;;;;7.15;2.65;;;20.30;93.40;;;;;;5118352;28;20050;-68
2022/09/04 08:20:37;;;;;;;3.55;2.50;;;20.50;93.50;;;;;;5117598;28;20428;-68
2022/09/04 08:23:32;;;;;;;6.22;2.20;;;20.50;93.20;;;;;;5118271;28;20119;-68
2022/09/04 08:26:13;;;;;;;4.32;2.30;;;20.50;93.10;;;;;;5117998;28;20036;-68
2022/09/04 08:28:55;;;;;;;4.55;2.30;;;20.60;93.10;;;;;;5118092;28;20085;-68
2022/09/04 08:32:02;;;;;;;4.10;2.10;;;20.80;93.30;;;;;;5118089;27;20040;-68
2022/09/04 08:34:34;;;;;;;6.80;2.83;;;20.80;93.30;;;;;;5117891;28;20046;-68
2022/09/04 08:37:21;;;;;;;5.07;2.40;;;20.80;93.10;;;;;;5117765;28;20568;-68
2022/09/04 08:40:11;;;;;;;7.53;3.08;;;21.00;93.30;;;;;;5117945;28;20039;-68
2022/09/04 08:42:57;;;;;;;6.30;2.50;;;21.20;93.10;;;;;;5117664;28;20042;-68
2022/09/04 08:45:32;;;;;;;6.93;2.53;;;21.40;93.20;;;;;;5117598;28;20444;-68
2022/09/04 08:48:17;;;;;;;7.45;2.58;;;21.50;93.20;;;;;;5116799;28;20329;-68
2022/09/04 08:51:03;;;;;;;7.88;2.55;;;21.60;93.30;;;;;;5117380;28;20051;-68
2022/09/04 08:53:55;;;;;;;6.90;2.40;;;21.70;93.20;;;;;;5117718;28;20051;-68
2022/09/04 08:56:53;;;;;;;6.05;2.38;;;21.70;93.20;;;;;;5117438;28;20160;-68
2022/09/04 08:59:53;;;;;;;5.57;2.53;;;22.00;93.10;;;;;;5096225;28;20048;-68
2022/09/04 09:02:30;;;;;;;4.20;2.55;;;22.10;93.00;;;;;;5117519;28;20035;-68
2022/09/04 09:05:27;;;;;;;5.00;2.40;;;22.20;93.10;;;;;;5117582;28;20039;-68
2022/09/04 09:08:05;;;;;;;6.45;2.20;;;22.40;93.20;;;;;;5116290;28;20050;-68
2022/09/04 09:10:51;;;;;;;3.42;2.20;;;22.80;93.30;;;;;;5117145;28;20479;-68
2022/09/04 09:14:00;;;;;;;7.65;2.45;;;23.00;93.30;;;;;;5117228;28;20031;-68
2022/09/04 09:17:11;;;;;;;3.28;2.08;;;22.90;93.10;;;;;;5117151;28;20043;-68
2022/09/04 09:19:59;;;;;;;6.65;2.03;;;22.90;93.10;;;;;;5116815;28;20486;-69
2022/09/04 09:22:37;;;;;;;11.77;2.47;;;23.00;93.20;;;;;;5117419;28;20074;-68
2022/09/04 09:25:03;;;;;;;5.07;2.25;;;23.30;93.30;;;;;;5117110;28;20077;-68
2022/09/04 09:27:47;;;;;;;6.18;2.28;;;23.50;93.00;;;;;;5116998;28;20044;-68
2022/09/04 09:30:21;;;;;;;4.15;1.98;;;23.60;92.80;;;;;;5116744;28;20122;-69
2022/09/04 09:33:11;;;;;;;4.03;1.90;;;23.80;92.80;;;;;;5116139;28;20075;-68
2022/09/04 09:35:54;;;;;;;6.25;1.80;;;23.70;92.90;;;;;;5116939;28;20065;-68
2022/09/04 09:38:44;;;;;;;7.25;2.03;;;23.90;92.90;;;;;;5116829;28;20051;-68
2022/09/04 09:41:28;;;;;;;4.13;1.83;;;23.90;93.10;;;;;;5117198;28;20080;-68
2022/09/04 09:44:15;;;;;;;8.25;1.85;;;24.10;92.90;;;;;;5116807;28;20451;-68
2022/09/04 09:47:18;;;;;;;5.05;1.70;;;24.40;92.70;;;;;;5116887;28;20336;-68
2022/09/04 09:50:11;;;;;;;6.05;1.92;;;24.40;92.80;;;;;;5116620;28;20089;-68
2022/09/04 09:52:58;;;;;;;5.65;1.70;;;24.60;92.60;;;;;;5116892;28;20118;-68
2022/09/04 09:55:26;;;;;;;3.67;1.38;;;24.60;92.50;;;;;;5116863;28;20048;-68
2022/09/04 09:58:10;;;;;;;3.08;1.50;;;24.60;92.60;;;;;;5116941;28;20290;-68
2022/09/04 10:00:49;;;;;;;6.10;1.48;;;24.60;92.30;;;;;;5116660;28;20044;-69
2022/09/04 10:03:17;;;;;;;3.55;1.45;;;24.60;92.30;;;;;;5116643;28;20039;-69
2022/09/04 10:06:06;;;;;;;3.72;1.52;;;24.60;92.40;;;;;;5116806;28;20036;-69
2022/09/04 10:08:56;;;;;;;2.83;1.60;;;24.70;92.20;;;;;;5116717;28;20035;-68
2022/09/04 10:11:30;;;;;;;5.85;1.60;;;24.80;92.20;;;;;;5116787;28;20036;-68
2022/09/04 10:14:05;;;;;;;2.38;1.30;;;25.10;92.00;;;;;;5116430;28;20092;-69
2022/09/04 10:17:17;;;;;;;2.55;1.30;;;25.20;92.10;;;;;;5116565;28;20040;-69
2022/09/04 10:20:20;;;;;;;2.92;1.63;;;25.40;92.20;;;;;;5060978;28;20053;-69
2022/09/04 10:23:04;;;;;;;5.35;1.50;;;25.80;92.30;;;;;;5116769;28;20048;-69
2022/09/04 10:26:00;;;;;;;4.32;1.33;;;26.10;92.20;;;;;;5154015;27;20374;-69
2022/09/04 10:28:52;;;;;;;5.88;1.33;;;26.20;91.90;;;;;;5120414;28;20058;-69
2022/09/04 10:31:56;;;;;;;2.45;1.20;;;26.10;92.00;;;;;;5120317;27;20044;-68
2022/09/04 10:34:45;;;;;;;5.40;1.27;;;26.40;91.80;;;;;;5085882;28;20050;-69
2022/09/04 10:37:22;;;;;;;3.55;1.48;;;26.40;91.80;;;;;;5120061;28;20052;-69
2022/09/04 10:40:34;;;;;;;2.88;1.60;;;26.50;91.90;;;;;;5120129;28;20046;-69
2022/09/04 10:43:23;;;;;;;3.25;1.17;;;26.50;91.70;;;;;;5120017;28;20122;-68
2022/09/04 10:46:08;;;;;;;2.83;1.40;;;26.60;91.70;;;;;;5120271;28;20042;-69
2022/09/04 10:49:02;;;;;;;3.08;1.40;;;26.60;91.50;;;;;;5102125;28;20039;-69
2022/09/04 10:51:59;;;;;;;4.88;1.60;;;26.90;91.80;;;;;;5119821;28;20428;-69
2022/09/04 10:54:43;;;;;;;;;;;27.10;92.10;;;;;;5120700;28;20063;-69
2022/09/04 10:57:31;;;;;;;2.45;1.30;;;27.30;91.90;;;;;;5119689;27;19927;-68
2022/09/04 11:00:28;;;;;;;3.50;1.33;;;27.40;91.90;;;;;;5119802;28;20353;-69
2022/09/04 11:02:55;;;;;;;8.35;1.45;;;27.40;91.60;;;;;;5088050;28;20082;-69
2022/09/04 11:05:30;;;;;;;4.28;1.27;;;27.10;91.40;;;;;;5119674;28;20335;-69
2022/09/04 11:08:34;;;;;;;6.20;1.48;;;27.10;91.80;;;;;;5119663;28;20050;-68
2022/09/04 11:11:39;;;;;;;3.15;1.40;;;27.40;91.60;;;;;;5119588;28;20039;-69
2022/09/04 11:14:24;;;;;;;3.75;1.23;;;27.30;91.50;;;;;;5056752;28;20041;-69
2022/09/04 11:17:14;;;;;;;5.03;1.50;;;27.30;91.70;;;;;;5057010;28;20080;-69
2022/09/04 11:19:42;;;;;;;5.75;1.63;;;27.50;91.50;;;;;;5104548;28;20386;-69
2022/09/04 11:22:44;;;;;;;5.97;1.60;;;27.90;91.80;;;;;;5119250;28;20329;-69
2022/09/04 11:25:21;;;;;;;3.28;1.30;;;28.00;91.30;;;;;;5119500;28;20039;-69
2022/09/04 11:28:12;;;;;;;2.67;1.23;;;27.90;91.40;;;;;;5119146;28;20123;-69
2022/09/04 11:31:08;;;;;;;3.92;1.30;;;28.00;91.60;;;;;;5119346;28;20118;-69
2022/09/04 11:33:47;;;;;;;2.88;1.33;;;28.20;91.40;;;;;;5119429;28;20073;-69
2022/09/04 11:36:39;;;;;;;3.17;1.50;;;28.50;92.00;;;;;;5118044;28;20340;-69
2022/09/04 11:39:37;;;;;;;5.40;1.50;;;28.70;91.70;;;;;;5118224;28;20062;-69
2022/09/04 11:42:12;;;;;;;3.47;1.27;;;28.80;91.30;;;;;;5117899;28;20047;-69
2022/09/04 11:45:19;;;;;;;2.25;1.25;;;28.80;91.20;;;;;;5118982;28;20036;-69
2022/09/04 11:47:55;;;;;;;5.30;1.40;;;29.00;91.50;;;;;;5091781;28;20056;-70
2022/09/04 11:50:39;;;;;;;2.67;1.50;;;29.30;91.40;;;;;;5117666;28;20424;-69
2022/09/04 11:53:31;;;;;;;4.22;1.35;;;29.50;91.20;;;;;;5117865;28;20047;-69
2022/09/04 11:56:35;;;;;;;3.40;1.23;;;29.40;91.10;;;;;;5118888;28;20039;-69
2022/09/04 11:59:12;;;;;;;3.53;1.13;;;29.40;91.20;;;;;;5118815;28;20082;-69
2022/09/04 12:02:10;;;;;;;4.07;1.15;;;29.40;91.30;;;;;;5118582;28;20063;-69
2022/09/04 12:04:55;;;;;;;3.53;1.20;;;29.50;91.50;;;;;;5097158;28;20059;-69
2022/09/04 12:08:01;;;;;;;1.80;1.30;;;29.80;91.70;;;;;;5117483;28;20340;-69
2022/09/04 12:10:48;;;;;;;5.25;1.60;;;30.20;91.40;;;;;;5080393;28;20051;-69
2022/09/04 12:14:07;;;;;;;5.10;1.30;;;30.40;91.40;;;;;;5118613;28;20384;-69
2022/09/04 12:17:01;;;;;;;3.33;1.27;;;30.70;91.30;;;;;;5092944;28;20051;-69
2022/09/04 12:20:22;;;;;;;4.28;1.58;;;30.70;91.10;;;;;;5117685;28;20097;-69
2022/09/04 12:23:19;;;;;;;3.45;1.30;;;30.40;91.20;;;;;;5110021;28;20093;-69
2022/09/04 12:26:15;;;;;;;3.13;1.17;;;30.50;91.40;;;;;;5117127;28;20052;-69
2022/09/04 12:29:07;;;;;;;1.85;1.05;;;30.40;91.30;;;;;;5117045;28;20039;-69
2022/09/04 12:32:14;;;;;;;3.97;0.95;;;30.30;91.30;;;;;;5117387;28;20044;-70
2022/09/04 12:35:00;;;;;;;3.17;1.08;;;30.40;91.60;;;;;;5118036;28;20425;-69
2022/09/04 12:37:59;;;;;;;3.90;1.08;;;30.40;91.10;;;;;;5117490;28;20533;-69
2022/09/04 12:40:28;;;;;;;2.55;1.25;;;30.40;91.10;;;;;;5117974;28;20059;-69
2022/09/04 12:43:15;;;;;;;3.03;1.00;;;30.10;90.90;;;;;;5117858;28;20381;-69
2022/09/04 12:45:43;;;;;;;3.53;1.80;;;30.30;91.50;;;;;;5117189;28;20071;-69
2022/09/04 12:48:34;;;;;;;2.08;1.20;;;30.60;91.20;;;;;;5151112;27;20421;-70
2022/09/04 12:51:08;;;;;;;2.25;1.10;;;30.90;91.30;;;;;;5117209;28;20043;-69
2022/09/04 12:53:44;;;;;;;7.57;1.50;;;31.40;91.10;;;;;;5117807;28;20106;-69
2022/09/04 12:56:25;;;;;;;2.75;1.40;;;31.60;91.10;;;;;;5117775;28;20031;-69
2022/09/04 12:59:22;;;;;;;3.80;1.33;;;31.80;91.00;;;;;;5117579;28;20043;-70
2022/09/04 13:02:16;;;;;;;5.78;1.20;;;32.10;91.40;;;;;;5116765;28;20051;-69
2022/09/04 13:05:14;;;;;;;2.70;1.10;;;32.20;91.10;;;;;;5117369;28;20070;-69
2022/09/04 13:08:02;;;;;;;2.88;1.00;;;32.30;90.90;;;;;;5046967;28;20138;-69
2022/09/04 13:10:52;;;;;;;2.47;1.00;;;32.30;91.10;;;;;;5116542;28;20043;-69
2022/09/04 13:13:44;;;;;;;2.67;1.00;;;32.30;90.90;;;;;;5117214;28;20078;-70
2022/09/04 13:16:35;;;;;;;2.85;1.20;;;32.30;90.80;;;;;;5099452;28;20412;-70
2022/09/04 13:19:18;;;;;;;4.15;1.25;;;31.80;90.80;;;;;;5116893;28;20031;-69
2022/09/04 13:22:15;;;;;;;1.67;1.00;;;31.50;90.80;;;;;;5116960;28;20321;-69
2022/09/04 13:24:49;;;;;;;3.33;1.25;;;31.60;90.90;;;;;;5117100;28;20347;-69
2022/09/04 13:27:25;;;;;;;2.60;1.25;;;31.60;90.80;;;;;;5116238;28;20083;-69
2022/09/04 13:30:17;;;;;;;2.40;1.10;;;31.40;91.10;;;;;;5116309;28;20070;-70
2022/09/04 13:33:01;;;;;;;4.18;1.20;;;31.60;91.00;;;;;;5117398;28;20036;-69
2022/09/04 13:35:42;;;;;;;6.00;0.90;;;31.70;90.80;;;;;;5116102;28;20096;-69
2022/09/04 13:38:14;;;;;;;2.05;1.00;;;31.50;90.90;;;;;;5149941;27;20390;-70
2022/09/04 13:41:10;;;;;;;3.28;1.10;;;31.60;91.00;;;;;;5116980;28;20447;-69
2022/09/04 13:44:13;;;;;;;4.13;1.30;;;31.50;90.90;;;;;;5116918;28;20036;-69
2022/09/04 13:46:49;;;;;;;3.45;1.20;;;31.50;91.00;;;;;;5116936;28;20056;-70
2022/09/04 13:49:20;;;;;;;3.97;1.30;;;31.40;90.80;;;;;;5116734;28;20046;-69
2022/09/04 13:51:53;;;;;;;2.05;1.00;;;31.30;90.70;;;;;;5117135;28;20071;-70
2022/09/04 13:54:38;;;;;;;4.32;1.20;;;31.00;90.90;;;;;;5116831;28;20039;-69
2022/09/04 13:57:19;;;;;;;1.30;1.10;;;30.90;90.80;;;;;;5115540;28;20047;-70
2022/09/04 13:59:48;;;;;;;3.05;1.42;;;30.90;91.20;;;;;;5119472;28;20771;-70
2022/09/04 14:02:23;;;;;;;5.57;1.20;;;30.80;90.80;;;;;;5121017;28;20090;-70
2022/09/04 14:04:52;;;;;;;4.38;1.30;;;30.70;91.20;;;;;;5119731;28;20039;-69
2022/09/04 14:07:23;;;;;;;3.22;1.17;;;30.90;91.20;;;;;;5120812;28;20036;-70
2022/09/04 14:09:53;;;;;;;2.08;1.30;;;30.80;91.00;;;;;;5120492;28;20493;-69
2022/09/04 14:12:43;;;;;;;2.38;1.30;;;30.40;91.10;;;;;;5120686;28;20035;-69
2022/09/04 14:15:20;;;;;;;2.40;0.90;;;30.20;90.90;;;;;;5120560;28;20074;-70
2022/09/04 14:17:52;;;;;;;4.10;1.20;;;30.10;90.80;;;;;;5120670;28;20047;-69
2022/09/04 14:20:33;;;;;;;6.00;1.40;;;30.00;90.80;;;;;;5119109;28;20376;-69
2022/09/04 14:23:25;;;;;;;2.33;0.90;;;29.90;90.90;;;;;;5120524;28;20067;-69
2022/09/04 14:26:03;;;;;;;2.53;0.98;;;30.00;91.30;;;;;;5120375;28;20092;-70
2022/09/04 14:28:41;;;;;;;3.22;1.05;;;30.00;90.90;;;;;;5120496;28;20096;-69